Time;durP1;ratioP1;P1;durP2;ratioP2;P2;SDS_P1;SDS_P2;PMS_P1;PMS_P2;Temp;Humidity;BMP_temperature;BMP_pressure;BME280_temperature;BME280_humidity;BME280_pressure;Samples;Min_cycle;Max_cycle;Signal;HPM_P1;HPM_P2
2022/04/19 00:00:48;;;;;;;6.30;4.40;;;10.50;84.70;;;;;;4963728;28;20058;-81
2022/04/19 00:03:15;;;;;;;6.22;5.32;;;10.40;85.00;;;;;;4981290;28;20046;-80
2022/04/19 00:05:41;;;;;;;8.43;4.32;;;9.60;84.80;;;;;;5000498;28;20037;-80
2022/04/19 00:08:08;;;;;;;7.40;4.82;;;11.10;86.00;;;;;;5000999;28;20069;-80
2022/04/19 00:10:38;;;;;;;5.47;3.88;;;10.50;86.40;;;;;;5008311;28;20048;-80
2022/04/19 00:13:06;;;;;;;6.32;4.05;;;10.20;86.10;;;;;;4990122;28;20049;-80
2022/04/19 00:15:32;;;;;;;7.10;5.57;;;10.30;86.40;;;;;;4965409;28;20045;-81
2022/04/19 00:18:02;;;;;;;8.88;4.40;;;11.40;87.60;;;;;;4987226;28;20132;-80
2022/04/19 00:20:28;;;;;;;6.28;4.85;;;11.80;88.10;;;;;;4984046;28;20537;-79
2022/04/19 00:23:00;;;;;;;7.07;4.03;;;10.10;87.60;;;;;;4973963;28;20049;-82
2022/04/19 00:25:26;;;;;;;6.30;4.82;;;10.10;87.90;;;;;;4984052;28;20045;-80
2022/04/19 00:27:52;;;;;;;7.88;4.93;;;10.20;88.40;;;;;;4985749;28;20030;-81
2022/04/19 00:30:20;;;;;;;5.93;4.97;;;11.50;89.80;;;;;;4996278;28;20053;-80
2022/04/19 00:32:46;;;;;;;7.82;5.00;;;10.00;88.80;;;;;;4999619;28;20462;-81
2022/04/19 00:35:12;;;;;;;7.40;5.20;;;10.30;89.30;;;;;;4998119;28;20042;-81
2022/04/19 00:37:39;;;;;;;8.38;5.35;;;10.70;90.00;;;;;;4987845;28;20042;-80
2022/04/19 00:40:07;;;;;;;6.90;4.72;;;11.80;90.30;;;;;;4990289;28;20137;-80
2022/04/19 00:42:33;;;;;;;9.43;5.65;;;10.30;89.90;;;;;;4982197;28;20070;-80
2022/04/19 00:45:05;;;;;;;6.90;4.95;;;10.40;90.20;;;;;;4977331;28;20766;-80
2022/04/19 00:47:34;;;;;;;9.80;5.38;;;10.20;90.10;;;;;;4970520;28;20052;-80
2022/04/19 00:50:04;;;;;;;9.77;5.55;;;10.10;90.30;;;;;;4980267;28;20528;-79
2022/04/19 00:52:31;;;;;;;9.15;5.75;;;10.60;90.60;;;;;;4962231;28;20080;-80
2022/04/19 00:54:57;;;;;;;8.00;5.20;;;10.00;90.80;;;;;;4991663;28;20038;-82
2022/04/19 00:57:24;;;;;;;8.63;5.53;;;10.20;91.10;;;;;;4955679;28;20034;-80
2022/04/19 00:59:55;;;;;;;5.70;4.90;;;11.60;91.60;;;;;;4997544;28;20453;-81
2022/04/19 01:02:22;;;;;;;8.13;5.43;;;9.80;91.60;;;;;;4983196;28;20046;-80
2022/04/19 01:04:49;;;;;;;6.72;5.20;;;11.60;92.10;;;;;;4978903;28;20053;-78
2022/04/19 01:07:20;;;;;;;6.30;5.40;;;9.80;91.90;;;;;;4989271;28;20046;-79
2022/04/19 01:09:47;;;;;;;9.52;5.70;;;9.80;92.30;;;;;;4985458;28;20034;-82
2022/04/19 01:15:09;;;;;;;6.93;5.70;;;9.70;92.70;;;;;;4985185;28;20132;-80
2022/04/19 01:17:39;;;;;;;8.50;4.95;;;9.80;93.00;;;;;;4963012;28;20405;-79
2022/04/19 01:20:06;;;;;;;6.18;5.32;;;9.50;93.00;;;;;;4953975;28;20034;-79
2022/04/19 01:22:40;;;;;;;8.18;5.65;;;9.70;93.20;;;;;;4995754;28;20489;-81
2022/04/19 01:25:07;;;;;;;7.93;5.45;;;11.30;93.90;;;;;;4986459;28;20113;-80
2022/04/19 01:27:35;;;;;;;10.57;5.72;;;9.60;93.60;;;;;;4995410;28;20049;-81
2022/04/19 01:30:08;;;;;;;9.05;4.85;;;11.30;94.30;;;;;;4972768;28;20406;-79
2022/04/19 01:32:34;;;;;;;9.05;6.05;;;9.60;94.10;;;;;;4974733;28;20057;-78
2022/04/19 01:35:18;;;;;;;9.15;6.30;;;9.50;94.20;;;;;;4964074;28;20230;-81
2022/04/19 01:37:49;;;;;;;6.53;5.80;;;11.30;95.00;;;;;;4978396;28;20042;-81
2022/04/19 01:40:18;;;;;;;8.85;6.10;;;10.80;94.90;;;;;;4971730;28;20313;-80
2022/04/19 01:42:45;;;;;;;9.52;5.90;;;9.40;94.80;;;;;;4979597;28;20056;-78
2022/04/19 01:45:13;;;;;;;6.70;5.70;;;9.40;94.90;;;;;;5005658;28;20050;-84
2022/04/19 01:47:43;;;;;;;10.60;6.10;;;9.40;95.20;;;;;;5009047;28;20563;-83
2022/04/19 01:50:09;;;;;;;9.07;6.40;;;9.00;95.40;;;;;;4988656;28;20073;-82
2022/04/19 01:52:39;;;;;;;10.55;6.43;;;9.30;95.70;;;;;;4997366;28;20049;-80
2022/04/19 01:55:07;;;;;;;10.77;7.07;;;9.30;95.90;;;;;;4989475;28;20510;-82
2022/04/19 01:57:33;;;;;;;9.07;6.32;;;9.30;96.00;;;;;;4991488;28;20124;-81
2022/04/19 01:59:59;;;;;;;9.40;6.53;;;8.90;96.10;;;;;;4990931;28;20114;-81
2022/04/19 02:02:25;;;;;;;9.98;6.57;;;9.10;96.20;;;;;;5006176;28;20060;-80
2022/04/19 02:04:50;;;;;;;11.20;6.40;;;9.10;96.30;;;;;;5002607;28;20041;-80
2022/04/19 02:07:19;;;;;;;10.88;6.93;;;9.20;96.80;;;;;;5004141;28;20355;-81
2022/04/19 02:09:45;;;;;;;7.22;6.38;;;8.70;96.80;;;;;;4990596;28;20054;-81
2022/04/19 02:12:11;;;;;;;12.70;6.95;;;8.60;96.80;;;;;;5005859;28;20037;-82
2022/04/19 02:14:38;;;;;;;8.68;6.28;;;9.00;97.10;;;;;;4992055;28;20044;-81
2022/04/19 02:17:04;;;;;;;8.70;5.53;;;10.20;97.80;;;;;;4984561;28;20045;-83
2022/04/19 02:19:33;;;;;;;8.75;6.22;;;10.50;97.90;;;;;;4996760;28;20391;-80
2022/04/19 02:21:58;;;;;;;9.30;6.32;;;9.00;97.80;;;;;;4967031;28;20042;-79
2022/04/19 02:24:24;;;;;;;10.43;6.47;;;8.90;97.80;;;;;;5007817;28;20410;-82
2022/04/19 02:26:49;;;;;;;9.15;6.28;;;10.60;98.50;;;;;;5007079;28;20040;-80
2022/04/19 02:29:16;;;;;;;8.40;6.53;;;10.90;98.70;;;;;;5005711;28;20548;-80
2022/04/19 02:31:42;;;;;;;7.85;5.93;;;9.00;98.30;;;;;;4988798;28;20038;-81
2022/04/19 02:34:08;;;;;;;9.10;6.55;;;10.00;98.80;;;;;;4986280;28;20057;-80
2022/04/19 02:36:33;;;;;;;9.20;6.10;;;8.90;98.80;;;;;;4989080;28;20050;-81
2022/04/19 02:38:59;;;;;;;7.15;5.85;;;8.90;99.10;;;;;;4991909;28;20431;-82
2022/04/19 02:41:25;;;;;;;7.78;5.88;;;9.20;99.30;;;;;;4999280;28;20057;-82
2022/04/19 02:43:51;;;;;;;11.18;7.15;;;8.80;99.60;;;;;;4966040;28;20042;-80
2022/04/19 02:46:18;;;;;;;8.32;6.07;;;10.30;99.90;;;;;;4970627;28;20100;-81
2022/04/19 02:48:44;;;;;;;8.05;6.30;;;8.60;99.90;;;;;;4981282;28;20107;-80
2022/04/19 02:51:10;;;;;;;10.18;6.20;;;9.90;99.90;;;;;;5002688;28;20502;-81
2022/04/19 02:53:36;;;;;;;9.23;6.68;;;8.50;99.90;;;;;;4989748;28;20046;-81
2022/04/19 02:56:03;;;;;;;9.50;6.88;;;8.60;99.90;;;;;;4984203;28;20069;-79
2022/04/19 02:58:29;;;;;;;9.48;6.75;;;8.40;99.90;;;;;;5006189;28;20322;-79
2022/04/19 03:00:55;;;;;;;8.25;6.75;;;8.10;99.90;;;;;;4982709;28;20132;-80
2022/04/19 03:03:21;;;;;;;8.57;6.35;;;8.10;99.90;;;;;;4990989;28;20115;-80
2022/04/19 03:05:48;;;;;;;10.48;6.50;;;9.30;99.90;;;;;;4984328;28;20045;-79
2022/04/19 03:08:13;;;;;;;10.18;6.75;;;7.70;99.90;;;;;;4969872;28;20050;-80
2022/04/19 03:10:39;;;;;;;9.13;7.22;;;8.00;99.90;;;;;;4987430;28;20383;-80
2022/04/19 03:13:05;;;;;;;10.13;6.63;;;8.00;99.90;;;;;;4968929;28;20103;-79
2022/04/19 03:15:34;;;;;;;8.32;5.85;;;7.80;99.90;;;;;;4971156;28;20050;-80
2022/04/19 03:18:00;;;;;;;12.43;7.18;;;8.50;99.90;;;;;;4964548;28;20283;-83
2022/04/19 03:20:26;;;;;;;8.43;6.13;;;7.40;99.90;;;;;;4989037;28;20141;-81
2022/04/19 03:28:20;;;;;;;9.07;6.85;;;7.50;99.90;;;;;;4993674;28;20455;-82
2022/04/19 03:30:46;;;;;;;11.15;6.65;;;7.80;99.90;;;;;;4984358;28;20117;-81
2022/04/19 03:33:11;;;;;;;11.10;5.95;;;7.70;99.90;;;;;;5004942;28;20112;-80
2022/04/19 03:35:38;;;;;;;12.43;7.68;;;7.70;99.90;;;;;;4967581;28;20037;-80
2022/04/19 03:38:07;;;;;;;12.52;6.95;;;7.50;99.90;;;;;;4983253;28;20043;-80
2022/04/19 03:40:33;;;;;;;7.93;6.32;;;7.70;99.90;;;;;;4984671;28;20048;-81
2022/04/19 03:42:59;;;;;;;9.70;6.75;;;7.20;99.90;;;;;;4980045;28;20049;-80
2022/04/19 03:45:24;;;;;;;9.50;6.80;;;7.70;99.90;;;;;;4985916;28;20045;-81
2022/04/19 03:47:50;;;;;;;11.98;6.82;;;7.20;99.90;;;;;;5003991;28;20041;-81
2022/04/19 03:50:16;;;;;;;9.25;7.28;;;7.60;99.90;;;;;;5021664;28;20133;-81
2022/04/19 03:52:44;;;;;;;9.55;7.15;;;7.60;99.90;;;;;;5016332;28;20046;-79
2022/04/19 03:55:10;;;;;;;9.57;7.38;;;7.50;99.90;;;;;;4980338;28;20050;-79
2022/04/19 03:57:35;;;;;;;11.48;6.60;;;7.40;99.90;;;;;;5014960;28;20029;-81
2022/04/19 04:00:01;;;;;;;10.82;7.35;;;7.50;99.90;;;;;;5020705;28;20065;-80
2022/04/19 04:02:27;;;;;;;11.75;7.55;;;7.60;99.90;;;;;;5004700;28;20562;-82
2022/04/19 04:04:53;;;;;;;15.30;7.30;;;7.50;99.90;;;;;;4987785;28;20065;-78
2022/04/19 04:07:18;;;;;;;10.80;8.02;;;9.10;99.90;;;;;;5007257;28;20092;-79
2022/04/19 04:09:44;;;;;;;9.45;7.00;;;7.40;99.90;;;;;;5021153;28;20433;-79
2022/04/19 04:12:14;;;;;;;12.00;8.02;;;7.60;99.90;;;;;;5021389;28;20620;-77
2022/04/19 04:14:41;;;;;;;8.80;7.07;;;7.40;99.90;;;;;;5002710;28;20119;-78
2022/04/19 04:17:07;;;;;;;9.98;7.78;;;7.60;99.90;;;;;;4987367;28;20038;-81
2022/04/19 04:19:33;;;;;;;10.23;7.28;;;7.70;99.90;;;;;;5007002;28;20087;-78
2022/04/19 04:21:58;;;;;;;8.88;7.38;;;7.70;99.90;;;;;;5007372;28;20046;-81
2022/04/19 04:24:25;;;;;;;9.85;7.93;;;7.30;99.90;;;;;;4999889;28;21654;-78
2022/04/19 04:26:50;;;;;;;10.18;7.00;;;7.60;99.90;;;;;;5018540;28;20041;-80
2022/04/19 04:29:16;;;;;;;8.82;6.90;;;7.20;99.90;;;;;;4997864;28;20053;-79
2022/04/19 04:31:42;;;;;;;14.40;7.05;;;7.50;99.90;;;;;;4996803;28;20106;-80
2022/04/19 04:34:08;;;;;;;13.30;7.68;;;7.50;99.90;;;;;;5017773;28;20080;-79
2022/04/19 04:36:34;;;;;;;13.65;7.57;;;7.40;99.90;;;;;;4995809;28;20100;-80
2022/04/19 04:39:00;;;;;;;10.57;7.57;;;6.70;99.90;;;;;;4996608;28;20069;-79
2022/04/19 04:41:25;;;;;;;10.15;7.93;;;7.50;99.90;;;;;;4989455;28;20105;-80
2022/04/19 04:43:51;;;;;;;10.10;7.47;;;7.50;99.90;;;;;;4993043;28;20056;-80
2022/04/19 04:51:45;;;;;;;9.77;6.40;;;9.50;99.90;;;;;;4989475;28;20046;-79
2022/04/19 04:54:10;;;;;;;12.48;8.00;;;9.50;99.90;;;;;;5003500;28;20549;-79
2022/04/19 04:56:36;;;;;;;12.82;7.65;;;8.40;99.90;;;;;;4991644;28;20061;-79
2022/04/19 04:59:02;;;;;;;12.50;8.02;;;9.30;99.90;;;;;;4971379;28;20121;-81
2022/04/19 05:01:27;;;;;;;9.57;7.57;;;7.00;99.90;;;;;;4982538;28;20096;-79
2022/04/19 05:03:53;;;;;;;13.30;7.97;;;7.30;99.90;;;;;;4973131;28;20470;-79
2022/04/19 05:06:19;;;;;;;12.32;7.70;;;7.30;99.90;;;;;;4998637;28;20069;-80
2022/04/19 05:08:45;;;;;;;10.73;7.78;;;5.60;99.90;;;;;;4987858;28;20457;-80
2022/04/19 05:11:10;;;;;;;14.32;8.73;;;7.20;99.90;;;;;;4999563;28;20054;-78
2022/04/19 05:13:36;;;;;;;14.15;7.18;;;7.50;99.90;;;;;;4979745;28;20096;-80
2022/04/19 05:16:02;;;;;;;9.90;7.03;;;7.00;99.90;;;;;;4993359;28;20034;-81
2022/04/19 05:18:28;;;;;;;10.38;7.95;;;7.30;99.90;;;;;;4996420;28;20391;-79
2022/04/19 05:20:54;;;;;;;13.88;7.50;;;7.20;99.90;;;;;;4975991;28;20069;-79
2022/04/19 05:23:20;;;;;;;10.95;7.65;;;7.00;99.90;;;;;;5011383;28;20498;-82
2022/04/19 05:25:46;;;;;;;11.00;7.18;;;7.30;99.90;;;;;;5008632;28;20378;-79
2022/04/19 05:28:12;;;;;;;12.52;7.93;;;7.10;99.90;;;;;;4980663;28;20052;-83
2022/04/19 05:30:38;;;;;;;13.93;7.78;;;7.30;99.90;;;;;;4992787;28;20046;-80
2022/04/19 05:33:05;;;;;;;11.30;8.20;;;7.40;99.90;;;;;;4981281;28;20045;-82
2022/04/19 05:35:31;;;;;;;11.07;7.15;;;7.40;99.90;;;;;;4994323;28;20077;-80
2022/04/19 05:37:58;;;;;;;12.90;7.85;;;7.40;99.90;;;;;;4970281;28;20061;-78
2022/04/19 05:40:24;;;;;;;10.77;7.82;;;7.40;99.90;;;;;;4963222;28;20042;-81
2022/04/19 05:42:49;;;;;;;9.85;7.50;;;7.40;99.90;;;;;;4989548;28;20065;-82
2022/04/19 05:45:15;;;;;;;10.50;8.00;;;7.40;99.90;;;;;;4993441;28;20112;-82
2022/04/19 05:47:40;;;;;;;10.45;7.80;;;7.50;99.90;;;;;;4974820;28;20165;-81
2022/04/19 05:50:07;;;;;;;9.23;7.60;;;7.50;99.90;;;;;;4973233;28;20049;-82
2022/04/19 05:52:32;;;;;;;10.75;7.65;;;7.50;99.90;;;;;;5003841;28;20386;-82
2022/04/19 05:54:58;;;;;;;16.40;9.68;;;8.90;99.90;;;;;;4986105;28;20042;-82
2022/04/19 05:57:23;;;;;;;9.25;7.38;;;9.00;99.90;;;;;;4976202;28;20029;-80
2022/04/19 05:59:49;;;;;;;11.00;6.80;;;7.60;99.90;;;;;;4986153;28;20041;-79
2022/04/19 06:04:59;;;;;;;10.00;7.18;;;7.70;99.90;;;;;;4986886;28;20146;-78
2022/04/19 06:07:29;;;;;;;12.20;8.15;;;7.80;99.90;;;;;;5007854;28;20049;-80
2022/04/19 06:09:55;;;;;;;10.57;8.00;;;7.50;99.90;;;;;;4973991;28;20042;-80
2022/04/19 06:12:21;;;;;;;14.38;7.15;;;7.50;99.90;;;;;;4969884;28;20042;-79
2022/04/19 06:14:47;;;;;;;10.88;7.38;;;7.90;99.90;;;;;;4988656;28;20401;-80
2022/04/19 06:17:14;;;;;;;13.90;6.82;;;8.80;99.90;;;;;;4975008;28;20042;-79
2022/04/19 06:19:41;;;;;;;11.45;7.93;;;8.00;99.90;;;;;;4986619;28;20038;-80
2022/04/19 06:22:06;;;;;;;14.00;8.13;;;9.30;99.90;;;;;;4976949;28;20050;-79
2022/04/19 06:24:32;;;;;;;12.48;8.23;;;8.20;99.90;;;;;;4986449;28;20041;-79
2022/04/19 06:26:57;;;;;;;13.95;7.47;;;8.20;99.90;;;;;;5003441;28;20038;-79
2022/04/19 06:29:23;;;;;;;12.50;7.75;;;8.30;99.90;;;;;;5003126;28;20042;-80
2022/04/19 06:31:49;;;;;;;14.75;7.85;;;8.30;99.90;;;;;;4987867;28;20096;-81
2022/04/19 06:34:16;;;;;;;10.95;8.52;;;8.30;99.90;;;;;;4989421;28;20045;-82
2022/04/19 06:36:45;;;;;;;13.00;7.35;;;9.80;99.90;;;;;;4985717;28;20064;-82
2022/04/19 06:39:11;;;;;;;12.68;8.13;;;8.60;99.90;;;;;;4967770;28;20049;-82
2022/04/19 06:41:37;;;;;;;13.02;8.02;;;8.60;99.90;;;;;;4973122;28;20128;-80
2022/04/19 06:44:03;;;;;;;10.98;8.02;;;8.60;99.90;;;;;;4982026;28;20100;-81
2022/04/19 06:46:30;;;;;;;11.90;7.95;;;8.80;99.90;;;;;;5008687;28;20402;-80
2022/04/19 06:48:56;;;;;;;11.63;7.75;;;10.80;99.90;;;;;;5009264;28;20041;-82
2022/04/19 06:51:23;;;;;;;14.55;7.88;;;9.20;99.90;;;;;;4971589;28;20451;-82
2022/04/19 06:53:49;;;;;;;11.10;7.60;;;8.00;99.90;;;;;;4995744;28;20045;-80
2022/04/19 06:56:16;;;;;;;12.25;8.18;;;8.90;99.90;;;;;;4978735;28;20195;-82
2022/04/19 06:58:42;;;;;;;12.38;8.45;;;10.80;99.90;;;;;;4983670;28;20461;-80
2022/04/19 07:01:12;;;;;;;13.30;7.88;;;9.50;99.90;;;;;;4969443;28;20054;-80
2022/04/19 07:03:38;;;;;;;14.30;7.65;;;10.70;99.90;;;;;;4981561;28;20085;-81
2022/04/19 07:06:05;;;;;;;12.55;7.68;;;10.80;99.90;;;;;;4988949;28;20131;-80
2022/04/19 07:08:31;;;;;;;10.70;7.47;;;9.50;99.90;;;;;;4981819;28;20112;-81
2022/04/19 07:11:00;;;;;;;13.07;7.75;;;10.40;99.90;;;;;;4996170;28;20085;-82
2022/04/19 07:13:26;;;;;;;12.23;7.60;;;11.10;99.90;;;;;;4985125;28;20049;-81
2022/04/19 07:15:56;;;;;;;10.75;6.97;;;11.20;99.90;;;;;;4998428;28;20056;-81
2022/04/19 07:18:24;;;;;;;11.80;7.38;;;9.60;99.90;;;;;;4962539;28;20050;-82
2022/04/19 07:26:38;;;;;;;9.65;6.03;;;10.10;99.90;;;;;;4995068;28;20046;-81
2022/04/19 07:29:05;;;;;;;8.65;6.07;;;10.30;99.90;;;;;;4974214;28;20033;-80
2022/04/19 07:31:31;;;;;;;9.32;6.55;;;11.40;99.90;;;;;;4999071;28;20179;-80
2022/04/19 07:33:57;;;;;;;8.75;5.70;;;10.10;99.90;;;;;;5001954;28;20061;-81
2022/04/19 07:36:23;;;;;;;10.48;5.88;;;11.80;99.90;;;;;;4976646;28;20129;-80
2022/04/19 07:38:49;;;;;;;7.32;5.40;;;11.80;99.90;;;;;;4995444;28;20613;-80
2022/04/19 07:41:17;;;;;;;7.97;5.05;;;10.70;99.90;;;;;;4974058;28;20128;-80
2022/04/19 07:43:45;;;;;;;8.32;5.57;;;11.00;99.90;;;;;;4974719;28;20050;-79
2022/04/19 07:46:12;;;;;;;7.32;5.35;;;11.10;99.90;;;;;;4993910;28;20050;-81
2022/04/19 07:48:38;;;;;;;9.07;5.30;;;10.70;99.90;;;;;;5001117;28;20037;-80
2022/04/19 07:51:03;;;;;;;7.80;5.60;;;12.90;99.90;;;;;;4993810;28;20044;-82
2022/04/19 07:53:29;;;;;;;11.18;6.20;;;11.80;99.90;;;;;;5010708;28;20049;-82
2022/04/19 07:55:57;;;;;;;8.05;5.63;;;12.40;99.90;;;;;;5002074;28;20184;-81
2022/04/19 07:58:24;;;;;;;8.70;5.72;;;12.70;99.90;;;;;;5001108;28;20046;-81
2022/04/19 08:00:50;;;;;;;6.70;5.20;;;11.50;99.90;;;;;;4992467;28;20046;-80
2022/04/19 08:03:16;;;;;;;8.85;4.93;;;11.70;99.90;;;;;;4994003;28;20045;-81
2022/04/19 08:05:44;;;;;;;6.25;4.90;;;11.80;99.90;;;;;;4998330;28;20038;-81
2022/04/19 08:08:10;;;;;;;13.88;5.85;;;11.90;99.90;;;;;;4994974;28;20045;-81
2022/04/19 08:10:36;;;;;;;7.45;5.22;;;13.50;99.90;;;;;;5012267;28;20041;-82
2022/04/19 08:13:06;;;;;;;7.75;4.35;;;12.00;99.90;;;;;;4979836;28;20035;-81
2022/04/19 08:15:32;;;;;;;8.52;4.70;;;13.80;99.90;;;;;;5004602;28;20474;-80
2022/04/19 08:17:58;;;;;;;5.80;4.93;;;13.10;99.90;;;;;;4981055;28;20034;-82
2022/04/19 08:20:24;;;;;;;6.13;4.80;;;13.40;99.90;;;;;;5008364;28;20135;-81
2022/04/19 08:22:50;;;;;;;9.20;5.18;;;12.40;99.90;;;;;;4979160;28;20033;-80
2022/04/19 08:25:16;;;;;;;10.27;4.78;;;13.70;99.90;;;;;;4977207;28;20050;-80
2022/04/19 08:27:46;;;;;;;7.82;5.35;;;12.50;99.90;;;;;;4991615;28;20045;-81
2022/04/19 08:30:14;;;;;;;7.65;4.50;;;12.50;99.90;;;;;;4979312;28;20113;-81
2022/04/19 08:32:40;;;;;;;10.10;4.45;;;12.70;99.90;;;;;;4975703;28;20041;-81
2022/04/19 08:35:06;;;;;;;5.97;4.68;;;12.80;99.90;;;;;;5000916;28;20066;-80
2022/04/19 08:37:34;;;;;;;9.70;5.38;;;12.90;99.90;;;;;;5014739;28;20398;-81
2022/04/19 08:40:07;;;;;;;9.35;5.05;;;12.60;99.90;;;;;;5001084;28;20185;-81
2022/04/19 08:42:35;;;;;;;6.00;5.00;;;13.00;99.90;;;;;;4978498;28;20049;-81
2022/04/19 08:45:03;;;;;;;6.47;4.22;;;14.30;99.90;;;;;;4974203;28;20086;-81
2022/04/19 08:47:33;;;;;;;7.82;4.13;;;13.00;99.90;;;;;;4995917;28;20046;-80
2022/04/19 08:50:02;;;;;;;6.75;3.97;;;13.40;99.90;;;;;;4988667;28;20037;-81
2022/04/19 08:52:28;;;;;;;5.18;4.10;;;12.80;99.90;;;;;;4999368;28;20061;-81
2022/04/19 08:57:39;;;;;;;3.30;2.35;;;14.80;99.90;;;;;;5012653;28;20046;-82
2022/04/19 09:00:06;;;;;;;3.05;2.50;;;13.40;99.90;;;;;;4980947;28;20593;-81
2022/04/19 09:02:33;;;;;;;4.05;2.38;;;13.40;99.90;;;;;;4993306;28;20548;-82
2022/04/19 09:05:16;;;;;;;1.95;1.75;;;13.10;99.90;;;;;;5011067;28;20092;-82
2022/04/19 09:07:44;;;;;;;3.30;1.90;;;13.60;98.90;;;;;;5003844;28;20041;-81
2022/04/19 09:10:14;;;;;;;5.57;2.13;;;13.70;98.00;;;;;;4975114;28;20049;-81
2022/04/19 09:13:03;;;;;;;2.08;1.10;;;13.80;97.20;;;;;;4976374;28;20045;-82
2022/04/19 09:15:43;;;;;;;1.45;0.93;;;14.00;94.60;;;;;;4993094;28;20049;-82
2022/04/19 09:18:24;;;;;;;3.45;1.08;;;13.70;90.80;;;;;;5005466;28;20524;-81
2022/04/19 09:20:51;;;;;;;2.63;0.80;;;14.30;88.60;;;;;;4988665;28;20442;-80
2022/04/19 09:23:17;;;;;;;2.83;1.25;;;14.30;86.90;;;;;;4966269;28;20414;-81
2022/04/19 09:25:44;;;;;;;4.63;0.95;;;14.30;86.50;;;;;;4990679;28;20057;-79
2022/04/19 09:28:36;;;;;;;3.42;0.98;;;14.40;84.30;;;;;;4991995;28;20073;-80
2022/04/19 09:31:11;;;;;;;1.88;1.17;;;14.50;81.10;;;;;;4991065;28;20468;-82
2022/04/19 09:33:36;;;;;;;2.75;1.30;;;14.60;81.00;;;;;;4973883;28;20129;-82
2022/04/19 09:36:03;;;;;;;1.88;1.05;;;14.70;81.00;;;;;;4979318;28;20137;-83
2022/04/19 09:38:43;;;;;;;6.20;1.52;;;14.70;80.60;;;;;;4993032;28;20054;-81
2022/04/19 09:41:13;;;;;;;1.42;1.10;;;14.80;81.40;;;;;;4994120;28;20034;-82
2022/04/19 09:43:39;;;;;;;1.75;0.80;;;14.80;81.80;;;;;;4977765;28;20137;-83
2022/04/19 09:46:06;;;;;;;1.20;0.95;;;14.90;81.10;;;;;;5002052;28;20121;-83
2022/04/19 09:48:34;;;;;;;3.13;0.93;;;15.00;80.60;;;;;;4982237;28;20041;-83
2022/04/19 09:51:11;;;;;;;1.75;1.10;;;15.10;79.20;;;;;;4999095;28;20144;-82
2022/04/19 09:53:44;;;;;;;1.48;0.90;;;15.20;79.50;;;;;;4985169;28;20124;-82
2022/04/19 09:56:15;;;;;;;1.92;0.98;;;15.20;78.70;;;;;;5000487;28;20040;-81
2022/04/19 09:58:43;;;;;;;1.90;0.80;;;15.20;78.70;;;;;;4989332;28;20104;-81
2022/04/19 10:08:10;;;;;;;1.67;0.82;;;15.30;79.90;;;;;;4997232;28;20045;-82
2022/04/19 10:09:33;;;;;;;8.13;1.00;;;15.50;78.50;;;;;;4975926;28;20401;-81
2022/04/19 10:12:00;;;;;;;1.52;0.70;;;15.50;75.40;;;;;;4619437;28;10000407;-81
2022/04/19 10:14:28;;;;;;;1.35;1.10;;;15.50;76.80;;;;;;5002078;28;20042;-83
2022/04/19 10:16:57;;;;;;;2.25;0.93;;;16.90;78.00;;;;;;4971924;28;20046;-80
2022/04/19 10:19:23;;;;;;;2.20;1.10;;;15.70;77.80;;;;;;4988884;28;20074;-83
2022/04/19 10:21:49;;;;;;;1.10;1.00;;;15.60;77.90;;;;;;4976080;28;20066;-85
2022/04/19 10:24:16;;;;;;;2.03;1.10;;;16.60;78.50;;;;;;4957598;28;20045;-84
2022/04/19 10:26:51;;;;;;;2.17;0.93;;;17.40;79.00;;;;;;4988395;28;20053;-82
2022/04/19 10:29:28;;;;;;;3.08;1.38;;;16.00;76.00;;;;;;4983758;28;20037;-83
2022/04/19 10:32:03;;;;;;;1.33;1.10;;;16.10;76.80;;;;;;4996571;28;20054;-83
2022/04/19 10:34:34;;;;;;;3.42;1.17;;;16.20;77.20;;;;;;4984456;28;20246;-82
2022/04/19 10:37:12;;;;;;;3.67;1.85;;;17.40;77.40;;;;;;4968816;28;20038;-82
2022/04/19 10:39:45;;;;;;;3.05;1.38;;;16.80;77.90;;;;;;4965243;28;20038;-83
2022/04/19 10:42:29;;;;;;;4.32;1.00;;;17.60;78.40;;;;;;4970501;28;20354;-81
2022/04/19 10:44:56;;;;;;;1.85;1.27;;;16.50;76.40;;;;;;4995903;28;20099;-80
2022/04/19 10:47:23;;;;;;;2.97;1.17;;;16.50;75.60;;;;;;4977967;28;20482;-80
2022/04/19 10:49:52;;;;;;;1.50;0.82;;;16.50;75.70;;;;;;4969807;28;20046;-80
2022/04/19 10:52:39;;;;;;;4.15;1.30;;;16.40;76.20;;;;;;4997785;28;20108;-72
2022/04/19 10:55:18;;;;;;;3.55;1.42;;;16.80;76.50;;;;;;4989062;28;20042;-83
2022/04/19 10:58:06;;;;;;;11.10;1.40;;;16.80;75.40;;;;;;4998014;28;20058;-83
2022/04/19 11:00:35;;;;;;;5.00;1.35;;;16.90;75.70;;;;;;4974182;28;20042;-86
2022/04/19 11:03:21;;;;;;;2.80;1.27;;;17.00;76.20;;;;;;5001192;28;20479;-83
2022/04/19 11:05:48;;;;;;;4.43;1.45;;;17.20;74.30;;;;;;4975977;28;20382;-85
2022/04/19 11:08:27;;;;;;;5.70;1.50;;;17.70;75.60;;;;;;4992804;28;20130;-81
2022/04/19 11:10:55;;;;;;;3.17;1.27;;;17.30;74.50;;;;;;4987439;28;20048;-82
2022/04/19 11:13:22;;;;;;;4.00;1.40;;;17.40;75.30;;;;;;5021746;28;20049;-81
2022/04/19 11:16:13;;;;;;;15.13;1.83;;;17.50;74.50;;;;;;4985468;28;20177;-86
2022/04/19 11:18:42;;;;;;;4.88;1.70;;;18.00;73.50;;;;;;4989808;28;20505;-81
2022/04/19 11:21:13;;;;;;;1.85;1.48;;;18.60;73.90;;;;;;5023960;28;20052;-82
2022/04/19 11:23:44;;;;;;;3.13;1.27;;;17.70;73.50;;;;;;5008100;28;20038;-82
2022/04/19 11:26:34;;;;;;;3.25;1.45;;;17.80;73.60;;;;;;5005021;28;20099;-79
2022/04/19 11:29:09;;;;;;;3.70;1.83;;;18.00;73.70;;;;;;5008130;28;20039;-83
2022/04/19 11:31:55;;;;;;;9.88;1.98;;;18.10;72.90;;;;;;4994183;28;20034;-83
2022/04/19 11:34:21;;;;;;;4.55;1.38;;;19.30;71.90;;;;;;4998977;28;20057;-81
2022/04/19 11:36:47;;;;;;;2.35;2.15;;;18.20;71.70;;;;;;5019902;28;20403;-82
2022/04/19 11:47:54;;;;;;;3.83;1.30;;;18.90;70.00;;;;;;4998230;28;20076;-83
2022/04/19 11:50:31;;;;;;;3.85;1.55;;;18.70;69.90;;;;;;4997983;28;20069;-84
2022/04/19 11:52:57;;;;;;;3.58;1.70;;;18.80;70.00;;;;;;4967980;28;20120;-81
2022/04/19 11:55:25;;;;;;;2.08;1.70;;;18.90;70.30;;;;;;4997251;28;20053;-80
2022/04/19 11:58:04;;;;;;;3.88;2.20;;;19.00;70.10;;;;;;5005827;28;20406;-80
2022/04/19 12:00:31;;;;;;;2.75;1.85;;;19.00;69.40;;;;;;4983364;28;20119;-81
2022/04/19 12:03:02;;;;;;;1.75;1.65;;;19.10;69.30;;;;;;4987080;28;20045;-84
2022/04/19 12:05:30;;;;;;;3.03;1.85;;;19.20;70.10;;;;;;4987909;28;20050;-80
2022/04/19 12:07:56;;;;;;;4.97;1.70;;;19.20;70.10;;;;;;4974538;28;20061;-80
2022/04/19 12:10:23;;;;;;;2.40;1.50;;;19.70;69.50;;;;;;5005073;28;20501;-80
2022/04/19 12:12:50;;;;;;;2.47;1.08;;;20.70;69.50;;;;;;5002844;28;20038;-80
2022/04/19 12:15:49;;;;;;;3.42;1.30;;;19.50;67.80;;;;;;5003820;28;20057;-79
2022/04/19 12:18:38;;;;;;;3.17;1.17;;;20.30;66.90;;;;;;4968120;28;20053;-81
2022/04/19 12:21:07;;;;;;;3.35;1.30;;;19.80;67.40;;;;;;4999606;28;20090;-79
2022/04/19 12:23:34;;;;;;;2.22;1.35;;;19.70;66.00;;;;;;5004019;28;20046;-78
2022/04/19 12:26:10;;;;;;;2.95;1.38;;;19.60;65.70;;;;;;4974627;28;20050;-79
2022/04/19 12:28:46;;;;;;;4.75;1.98;;;19.80;66.40;;;;;;5007312;28;20037;-81
2022/04/19 12:31:34;;;;;;;1.77;1.35;;;20.00;65.40;;;;;;4987369;28;20073;-79
2022/04/19 12:34:04;;;;;;;1.83;1.25;;;20.20;65.50;;;;;;4985654;28;20041;-79
2022/04/19 12:36:49;;;;;;;2.80;1.40;;;20.30;64.20;;;;;;5004230;28;20042;-87
2022/04/19 12:39:22;;;;;;;1.38;1.27;;;20.30;64.30;;;;;;4970804;28;20050;-87
2022/04/19 12:41:49;;;;;;;2.47;1.15;;;20.70;65.00;;;;;;4980472;28;20064;-83
2022/04/19 12:44:19;;;;;;;1.38;1.00;;;20.20;63.40;;;;;;4969006;28;20054;-84
2022/04/19 12:46:49;;;;;;;1.52;1.33;;;20.30;63.60;;;;;;4988164;28;20131;-81
2022/04/19 12:49:22;;;;;;;3.15;1.10;;;20.20;64.10;;;;;;5007268;28;20610;-84
2022/04/19 12:52:06;;;;;;;2.10;1.30;;;20.40;64.50;;;;;;4987308;28;20041;-82
2022/04/19 12:54:33;;;;;;;3.15;1.35;;;20.50;64.70;;;;;;4975232;28;20053;-85
2022/04/19 12:57:00;;;;;;;4.82;2.38;;;20.40;64.10;;;;;;4987640;28;20022;-83
2022/04/19 12:59:28;;;;;;;2.85;1.10;;;20.50;64.20;;;;;;5006872;28;20505;-83
2022/04/19 13:01:57;;;;;;;1.10;1.00;;;20.50;63.80;;;;;;4987177;28;20445;-84
2022/04/19 13:04:23;;;;;;;2.60;1.20;;;20.80;63.60;;;;;;4985250;28;20088;-83
2022/04/19 13:12:22;;;;;;;3.28;0.90;;;20.60;62.90;;;;;;4976911;28;20054;-84
2022/04/19 13:14:51;;;;;;;5.60;1.35;;;20.40;62.40;;;;;;4980637;28;20117;-81
2022/04/19 13:17:17;;;;;;;3.80;1.38;;;20.60;62.10;;;;;;4966371;28;20064;-80
2022/04/19 13:19:43;;;;;;;3.28;1.30;;;20.30;61.90;;;;;;4998238;28;20454;-81
2022/04/19 13:22:09;;;;;;;1.45;1.00;;;20.20;62.70;;;;;;4997565;28;20042;-82
2022/04/19 13:24:36;;;;;;;4.22;1.15;;;20.50;62.50;;;;;;4999304;28;20049;-81
2022/04/19 13:27:03;;;;;;;4.55;1.50;;;20.00;62.40;;;;;;4991544;28;20574;-85
2022/04/19 13:29:29;;;;;;;4.90;1.15;;;20.10;63.10;;;;;;4983774;28;20080;-81
2022/04/19 13:31:55;;;;;;;1.58;1.35;;;20.20;63.20;;;;;;4989956;28;20054;-81
2022/04/19 13:34:21;;;;;;;2.45;2.00;;;20.30;63.50;;;;;;4979659;28;20117;-83
2022/04/19 13:36:48;;;;;;;1.50;1.45;;;21.00;63.90;;;;;;4977114;28;20034;-85
2022/04/19 13:39:13;;;;;;;7.35;1.60;;;20.30;63.20;;;;;;4970882;28;20050;-86